METAR Data

Data at: 0637 UTC 28 Sep 2022

METAR for:KIJD (Willimantic/Windhan, CT, US)
Text:KIJD 280552Z AUTO 00000KT 10SM OVC090 10/09 A2997 RMK AO2 SLP148 T01000094 10150 20094 53015
Temperature: 10.0°C ( 50°F)
Dewpoint: 9.4°C ( 49°F) [RH = 96%]
Pressure (altimeter):29.97 inches Hg (1015.0 mb) [Sea level pressure: 1014.8 mb]
Winds:calm
Visibility:10 or more sm (16+ km)
Ceiling:9000 feet AGL
Clouds: overcast cloud deck at 9000 feet AGL
QC Flag:automated observation with no human augmentation